Tropical Cyclones
[Index]
Main Index Home Page Stock Weather Photos Extreme Storms Discussion Storm News and Storm Chasing Reports Tropical Cyclones / Hurricanes / Typhoons Weather Data and Links Wild Fires / Bushfires Weather Observation Techniques Weather Picture Catalogue Tornado Pictures and Reports Stock Video Footage and DVDs for sale
Season 1988-1989 Tropical Cyclone EDME Track Map
Season 1988-1989 Summaries: [BoM-AU] [JTWC-AU] [JTWC-SIO] [JTWC-SPAC] [JTWC-SH]
<<- Previous TC | JTWC 1988-1989 Season | Next TC ->>

click for intensity scale information  Lat/long Grid: Show Hide

 Date Labels: Show Hide

Joint Typhoon Warning Centre Cyclone Data

Name: EDME

17 Jan 1989 18:00 UTC to 26 Jan 1989 06:00 UTC

    date/time    lat    long     hPa   cat  kts
1989-01-17 18    9.5    82.0                  20          
1989-01-18 00   10.1    82.2                  20          
1989-01-18 06   10.6    82.4                  20          
1989-01-18 12   11.0    82.5                  20          
1989-01-18 18   11.4    82.8                  20          
1989-01-19 00   11.9    82.9                  25          
1989-01-19 06   12.4    82.6                  25          
1989-01-19 12   12.6    82.5                  25          
1989-01-19 18   12.8    82.5                  30          
1989-01-20 00   13.0    82.6                  30          
1989-01-20 06   13.2    82.7                  30          
1989-01-20 12   13.4    82.8                  35          
1989-01-20 18   13.6    82.9                  35          
1989-01-21 00   13.8    83.0            1     40          
1989-01-21 06   14.0    83.0            1     45          
1989-01-21 12   14.4    83.2            1     45          
1989-01-21 18   15.0    83.3            1     50          
1989-01-22 00   15.7    83.4            2     55          
1989-01-22 06   16.4    83.3            2     65          
1989-01-22 12   17.2    83.1            2     65          
1989-01-22 18   17.8    82.8            3     75          
1989-01-23 00   18.5    82.4            3     90          
1989-01-23 06   19.0    82.0            4    105          
1989-01-23 12   19.2    81.6            4    110          
1989-01-23 18   19.5    81.3            4    115          
1989-01-24 00   19.9    80.8            4    110          
1989-01-24 06   20.7    79.8            4    105          
1989-01-24 12   21.5    79.0            3     90          
1989-01-24 18   22.3    77.9            3     75          
1989-01-25 00   22.8    76.6            2     65          
1989-01-25 06   23.5    75.5            2     55          
1989-01-25 12   24.3    74.0            1     45          
1989-01-25 18   25.0    72.5                  30          
1989-01-26 00   26.3    71.0                  25          
1989-01-26 06   28.5    70.9                  20          
Winds are 1-min average.

Tropical cyclone tracks developed by Michael Bath using data from the Joint Typhoon Warning Centre Best Tracks and Google Maps.


[Australian Severe Weather index] [Copyright Notice] [Email Contacts] [Search This Site] [Privacy Policy]
Document: tropical_cyclone_edme.htm Updated: 18 September 2016